createdAt,value
2023-04-15T00:02:07.826Z,3.70
2023-04-15T00:04:37.723Z,5.00
2023-04-15T00:07:05.536Z,2.90
2023-04-15T00:09:33.196Z,3.50
2023-04-15T00:12:00.861Z,3.00
2023-04-15T00:14:28.625Z,4.00
2023-04-15T00:16:57.470Z,5.50
2023-04-15T00:19:25.685Z,4.40
2023-04-15T00:21:54.065Z,3.60
2023-04-15T00:24:21.832Z,2.50
2023-04-15T00:26:49.482Z,2.90
2023-04-15T00:29:17.160Z,2.90
2023-04-15T00:31:45.019Z,3.10
2023-04-15T00:34:13.192Z,2.30
2023-04-15T00:36:40.854Z,3.20
2023-04-15T00:39:08.516Z,2.50
2023-04-15T00:41:39.456Z,6.70
2023-04-15T00:44:07.218Z,2.50
2023-04-15T00:46:35.295Z,3.00
2023-04-15T00:49:02.964Z,2.80
2023-04-15T00:51:31.740Z,3.00
2023-04-15T00:53:59.403Z,3.60
2023-04-15T00:56:27.576Z,2.70
2023-04-15T00:58:55.443Z,3.20
2023-04-15T01:01:23.237Z,2.70
2023-04-15T01:03:51.480Z,3.30
2023-04-15T01:06:19.370Z,2.50
2023-04-15T01:08:47.113Z,2.80
2023-04-15T01:11:14.782Z,4.00
2023-04-15T01:13:42.846Z,3.20
2023-04-15T01:16:10.644Z,2.00
2023-04-15T01:18:38.890Z,3.80
2023-04-15T01:21:07.268Z,2.60
2023-04-15T01:23:34.926Z,1.90
2023-04-15T01:26:02.900Z,2.00
2023-04-15T01:28:30.661Z,1.80
2023-04-15T01:30:58.941Z,2.10
2023-04-15T01:33:26.702Z,2.00
2023-04-15T01:35:54.673Z,2.80
2023-04-15T01:38:22.643Z,1.80
2023-04-15T01:40:50.402Z,2.00
2023-04-15T01:43:18.067Z,2.50
2023-04-15T01:45:46.273Z,2.40
2023-04-15T01:48:14.007Z,1.80
2023-04-15T01:50:42.078Z,1.70
2023-04-15T01:53:09.947Z,1.90
2023-04-15T01:55:37.811Z,1.60
2023-04-15T01:58:05.674Z,3.10
2023-04-15T02:00:33.438Z,1.60
2023-04-15T02:03:01.177Z,1.50
2023-04-15T02:05:29.077Z,1.50
2023-04-15T02:07:56.842Z,1.40
2023-04-15T02:10:24.509Z,1.40
2023-04-15T02:12:52.265Z,2.00
2023-04-15T02:15:26.686Z,1.40
2023-04-15T02:17:55.689Z,2.70
2023-04-15T02:20:23.450Z,1.60
2023-04-15T02:22:51.512Z,1.70
2023-04-15T02:25:19.276Z,1.40
2023-04-15T02:27:46.949Z,1.50
2023-04-15T02:30:14.709Z,2.00
2023-04-15T02:32:45.549Z,1.70
2023-04-15T02:35:13.583Z,2.10
2023-04-15T02:37:44.036Z,2.90
2023-04-15T02:40:14.680Z,3.70
2023-04-15T02:42:42.850Z,2.80
2023-04-15T02:45:10.610Z,1.70
2023-04-15T02:47:40.542Z,2.80
2023-04-15T02:50:08.188Z,2.40
2023-04-15T02:52:35.945Z,1.80
2023-04-15T02:55:04.642Z,1.60
2023-04-15T02:57:32.403Z,2.00
2023-04-15T03:00:00.056Z,4.50
2023-04-15T03:02:28.108Z,4.50
2023-04-15T03:04:56.095Z,2.10
2023-04-15T03:07:23.756Z,1.90
2023-04-15T03:09:51.826Z,1.90
2023-04-15T03:12:19.494Z,2.80
2023-04-15T03:14:47.252Z,3.50
2023-04-15T03:17:15.123Z,3.70
2023-04-15T03:19:42.789Z,3.20
2023-04-15T03:22:10.549Z,3.50
2023-04-15T03:24:38.221Z,2.30
2023-04-15T03:27:08.221Z,2.60
2023-04-15T03:29:35.885Z,3.80
2023-04-15T03:32:03.551Z,1.80
2023-04-15T03:34:31.725Z,6.20
2023-04-15T03:36:59.415Z,1.80
2023-04-15T03:39:27.459Z,1.60
2023-04-15T03:41:55.117Z,2.40
2023-04-15T03:44:22.777Z,2.40
2023-04-15T03:46:50.566Z,2.70
2023-04-15T03:49:19.637Z,3.10
2023-04-15T03:51:47.300Z,4.00
2023-04-15T03:54:15.473Z,1.90
2023-04-15T03:56:43.137Z,1.80
2023-04-15T03:59:11.619Z,2.20
2023-04-15T04:01:39.422Z,2.70
2023-04-15T04:04:07.718Z,1.80
2023-04-15T04:06:35.626Z,2.60
2023-04-15T04:09:03.534Z,1.80
2023-04-15T04:11:31.973Z,2.10
2023-04-15T04:13:59.637Z,5.90
2023-04-15T04:16:27.480Z,2.40
2023-04-15T04:18:55.476Z,2.20
2023-04-15T04:21:23.239Z,3.10
2023-04-15T04:23:50.895Z,3.10
2023-04-15T04:26:18.766Z,3.30
2023-04-15T04:28:46.428Z,2.80
2023-04-15T04:31:14.092Z,2.50
2023-04-15T04:33:41.853Z,4.50
2023-04-15T04:36:09.612Z,4.30
2023-04-15T04:38:37.479Z,3.90
2023-04-15T04:41:05.142Z,2.40
2023-04-15T04:43:32.813Z,1.60
2023-04-15T04:46:00.793Z,2.00
2023-04-15T04:48:28.534Z,1.80
2023-04-15T04:50:56.294Z,2.70
2023-04-15T04:53:24.065Z,3.60
2023-04-15T04:55:51.826Z,2.60
2023-04-15T04:58:19.592Z,1.80
2023-04-15T05:00:47.381Z,2.40
2023-04-15T05:03:15.286Z,6.70
2023-04-15T05:05:43.741Z,5.00
2023-04-15T05:08:11.465Z,7.50
2023-04-15T05:10:39.241Z,29.30
2023-04-15T05:13:06.894Z,61.60
2023-04-15T05:15:37.152Z,41.80
2023-04-15T05:18:04.951Z,76.90
2023-04-15T05:20:32.747Z,3.20
2023-04-15T05:23:00.409Z,5.90
2023-04-15T05:25:28.070Z,24.30
2023-04-15T05:27:56.138Z,27.40
2023-04-15T05:30:23.803Z,35.10
2023-04-15T05:32:51.454Z,16.30
2023-04-15T05:35:19.338Z,11.80
2023-04-15T05:37:47.490Z,4.20
2023-04-15T05:40:15.752Z,6.70
2023-04-15T05:42:43.443Z,24.80
2023-04-15T05:45:11.105Z,16.90
2023-04-15T05:47:38.798Z,33.50
2023-04-15T05:50:06.838Z,11.40
2023-04-15T05:52:34.500Z,18.90
2023-04-15T05:55:02.263Z,18.50
2023-04-15T05:57:29.926Z,16.00
2023-04-15T05:59:58.106Z,6.10
2023-04-15T06:02:26.868Z,7.40
2023-04-15T06:04:54.825Z,8.90
2023-04-15T06:07:22.638Z,9.80
2023-04-15T06:09:50.594Z,17.00
2023-04-15T06:12:18.252Z,11.30
2023-04-15T06:14:45.914Z,5.50
2023-04-15T06:17:15.211Z,5.10
2023-04-15T06:19:42.874Z,10.30
2023-04-15T06:22:10.741Z,21.60
2023-04-15T06:24:38.508Z,12.60
2023-04-15T06:27:06.270Z,6.40
2023-04-15T06:29:33.903Z,4.40
2023-04-15T06:32:01.802Z,3.50
2023-04-15T06:34:29.557Z,4.70
2023-04-15T06:36:57.731Z,11.50
2023-04-15T06:39:25.396Z,36.40
2023-04-15T06:41:53.266Z,37.30
2023-04-15T06:44:21.024Z,25.80
2023-04-15T06:46:48.688Z,7.60
2023-04-15T06:49:16.654Z,5.30
2023-04-15T06:51:44.421Z,17.40
2023-04-15T06:54:12.299Z,6.30
2023-04-15T06:56:40.052Z,7.40
2023-04-15T06:59:08.837Z,5.10
2023-04-15T07:01:36.619Z,3.00
2023-04-15T07:04:04.633Z,5.30
2023-04-15T07:06:32.949Z,4.20
2023-04-15T07:09:01.910Z,4.80
2023-04-15T07:11:29.806Z,4.80
2023-04-15T07:13:57.480Z,4.60
2023-04-15T07:16:26.198Z,3.30
2023-04-15T07:18:56.169Z,3.90
2023-04-15T07:21:24.144Z,4.80
2023-04-15T07:23:52.212Z,4.20
2023-04-15T07:26:19.876Z,5.20
2023-04-15T07:28:47.646Z,7.70
2023-04-15T07:31:16.735Z,6.30
2023-04-15T07:33:44.497Z,8.60
2023-04-15T07:36:12.265Z,6.80
2023-04-15T07:38:39.924Z,4.20
2023-04-15T07:41:07.798Z,7.10
2023-04-15T07:43:35.763Z,2.50
2023-04-15T07:46:03.531Z,3.90
2023-04-15T07:48:31.700Z,6.70
2023-04-15T07:50:59.362Z,5.40
2023-04-15T07:53:27.133Z,9.80
2023-04-15T07:55:54.787Z,4.40
2023-04-15T07:58:22.454Z,3.00
2023-04-15T08:00:50.621Z,3.40
2023-04-15T08:03:18.724Z,3.70
2023-04-15T08:05:47.491Z,2.80
2023-04-15T08:08:16.927Z,3.20
2023-04-15T08:10:45.777Z,3.10
2023-04-15T08:13:13.442Z,5.80
2023-04-15T08:15:41.591Z,3.10
2023-04-15T08:18:09.681Z,3.90
2023-04-15T08:20:38.372Z,2.20
2023-04-15T08:23:06.440Z,3.10
2023-04-15T08:25:34.117Z,2.10
2023-04-15T08:28:03.706Z,2.00
2023-04-15T08:30:31.677Z,2.00
2023-04-15T08:32:59.385Z,2.70
2023-04-15T08:35:27.724Z,6.80
2023-04-15T08:37:55.687Z,3.40
2023-04-15T08:40:23.352Z,3.80
2023-04-15T08:42:51.009Z,3.50
2023-04-15T08:45:21.158Z,2.40
2023-04-15T08:47:49.017Z,2.40
2023-04-15T08:50:16.766Z,3.00
2023-04-15T08:52:44.948Z,1.90
2023-04-15T08:55:13.107Z,3.50
2023-04-15T08:57:40.975Z,2.50
2023-04-15T09:00:09.555Z,2.50
2023-04-15T09:02:37.757Z,2.30
2023-04-15T09:05:07.134Z,5.10
2023-04-15T09:07:36.025Z,2.50
2023-04-15T09:10:03.804Z,2.60
2023-04-15T09:12:31.868Z,2.90
2023-04-15T09:14:59.622Z,3.20
2023-04-15T09:17:28.023Z,2.40
2023-04-15T09:19:55.778Z,2.20
2023-04-15T09:22:23.429Z,3.00
2023-04-15T09:24:51.192Z,2.10
2023-04-15T09:27:19.060Z,3.70
2023-04-15T09:29:47.132Z,4.30
2023-04-15T09:32:14.889Z,4.50
2023-04-15T09:34:42.660Z,3.50
2023-04-15T09:37:11.381Z,3.80
2023-04-15T09:39:39.212Z,2.10
2023-04-15T09:42:07.322Z,4.20
2023-04-15T09:44:35.160Z,1.70
2023-04-15T09:47:02.910Z,2.40
2023-04-15T09:49:30.609Z,3.70
2023-04-15T09:52:04.923Z,6.40
2023-04-15T09:54:33.371Z,4.40
2023-04-15T09:57:01.954Z,3.20
2023-04-15T09:59:29.617Z,4.60
2023-04-15T10:01:57.339Z,6.10
2023-04-15T10:04:25.345Z,3.50
2023-04-15T10:06:53.732Z,3.30
2023-04-15T10:09:21.494Z,2.30
2023-04-15T10:11:49.674Z,3.00
2023-04-15T10:14:17.840Z,3.60
2023-04-15T10:16:46.325Z,3.20
2023-04-15T10:19:13.990Z,4.10
2023-04-15T10:21:41.756Z,2.60
2023-04-15T10:24:09.418Z,3.60
2023-04-15T10:26:37.072Z,5.10
2023-04-15T10:29:05.143Z,2.90
2023-04-15T10:31:37.892Z,13.70
2023-04-15T10:34:08.350Z,17.30
2023-04-15T10:36:37.342Z,11.30
2023-04-15T10:39:05.109Z,48.20
2023-04-15T10:41:34.820Z,42.50
2023-04-15T10:44:03.096Z,33.50
2023-04-15T10:46:31.326Z,14.20
2023-04-15T10:48:59.133Z,8.70
2023-04-15T10:51:26.900Z,5.50
2023-04-15T10:53:54.569Z,7.30
2023-04-15T10:56:22.425Z,4.90
2023-04-15T10:58:50.087Z,6.70
2023-04-15T11:01:18.370Z,5.80
2023-04-15T11:03:46.930Z,4.10
2023-04-15T11:06:14.932Z,3.70
2023-04-15T11:08:42.683Z,5.30
2023-04-15T11:11:10.301Z,4.60
2023-04-15T11:13:38.039Z,3.40
2023-04-15T11:16:06.603Z,3.40
2023-04-15T11:18:34.463Z,2.90
2023-04-15T11:21:03.908Z,2.20
2023-04-15T11:23:31.822Z,2.50
2023-04-15T11:26:00.218Z,3.50
2023-04-15T11:28:28.482Z,3.60
2023-04-15T11:30:56.345Z,4.00
2023-04-15T11:33:24.420Z,4.00
2023-04-15T11:35:52.996Z,2.90
2023-04-15T11:38:20.659Z,3.10
2023-04-15T11:40:48.425Z,4.60
2023-04-15T11:43:16.394Z,3.70
2023-04-15T11:45:44.203Z,4.80
2023-04-15T11:48:12.125Z,4.50
2023-04-15T11:50:42.863Z,3.30
2023-04-15T11:53:10.625Z,3.50
2023-04-15T11:55:38.326Z,4.00
2023-04-15T11:58:06.768Z,6.00
2023-04-15T12:00:35.047Z,4.20
2023-04-15T12:03:02.953Z,3.20
2023-04-15T12:05:30.775Z,7.40
2023-04-15T12:07:59.054Z,5.00
2023-04-15T12:10:26.722Z,4.50
2023-04-15T12:12:54.476Z,3.40
2023-04-15T12:15:22.445Z,5.30
2023-04-15T12:17:51.434Z,3.60
2023-04-15T12:20:20.021Z,4.30
2023-04-15T12:22:47.822Z,5.50
2023-04-15T12:25:16.366Z,3.40
2023-04-15T12:27:44.133Z,4.00
2023-04-15T12:30:12.016Z,2.80
2023-04-15T12:32:42.105Z,3.00
2023-04-15T12:35:11.318Z,4.20
2023-04-15T12:37:39.194Z,3.70
2023-04-15T12:40:07.272Z,4.30
2023-04-15T12:42:35.726Z,3.90
2023-04-15T12:45:03.400Z,4.30
2023-04-15T12:47:31.595Z,3.30
2023-04-15T12:49:59.442Z,5.00
2023-04-15T12:52:27.309Z,2.80
2023-04-15T12:54:55.072Z,5.10
2023-04-15T12:57:22.854Z,3.00
2023-04-15T12:59:50.600Z,3.80
2023-04-15T13:02:19.018Z,3.30
2023-04-15T13:04:46.889Z,2.20
2023-04-15T13:07:15.965Z,1.90
2023-04-15T13:09:44.323Z,3.30
2023-04-15T13:12:14.063Z,2.80
2023-04-15T13:14:42.306Z,2.60
2023-04-15T13:17:11.712Z,2.80
2023-04-15T13:19:39.404Z,2.50
2023-04-15T13:22:08.671Z,2.40
2023-04-15T13:24:37.358Z,3.40
2023-04-15T13:27:05.325Z,2.10
2023-04-15T13:29:33.090Z,3.50
2023-04-15T13:32:01.746Z,2.30
2023-04-15T13:34:30.052Z,2.60
2023-04-15T13:36:57.922Z,2.50
2023-04-15T13:39:25.789Z,4.90
2023-04-15T13:41:53.572Z,2.40
2023-04-15T13:44:22.282Z,2.20
2023-04-15T13:46:50.155Z,3.50
2023-04-15T13:49:18.068Z,2.30
2023-04-15T13:51:45.944Z,2.10
2023-04-15T13:54:13.702Z,3.00
2023-04-15T13:56:41.473Z,2.90
2023-04-15T13:59:09.244Z,3.30
2023-04-15T14:01:37.018Z,2.60
2023-04-15T14:04:05.168Z,2.70
2023-04-15T14:06:33.335Z,4.40
2023-04-15T14:09:01.214Z,3.20
2023-04-15T14:11:30.199Z,3.00
2023-04-15T14:13:57.989Z,2.80
2023-04-15T14:16:26.161Z,2.40
2023-04-15T14:18:54.002Z,3.00
2023-04-15T14:21:21.769Z,2.20
2023-04-15T14:23:49.422Z,2.50
2023-04-15T14:26:17.192Z,2.40
2023-04-15T14:28:45.363Z,2.20
2023-04-15T14:31:13.178Z,2.30
2023-04-15T14:33:40.996Z,3.50
2023-04-15T14:36:08.759Z,3.10
2023-04-15T14:38:38.843Z,3.90
2023-04-15T14:41:06.843Z,2.00
2023-04-15T14:43:34.690Z,1.80
2023-04-15T14:46:03.837Z,1.80
2023-04-15T14:48:33.439Z,1.50
2023-04-15T14:51:01.386Z,2.10
2023-04-15T14:53:29.662Z,1.50
2023-04-15T14:55:57.959Z,1.50
2023-04-15T14:58:26.070Z,2.60
2023-04-15T15:00:53.790Z,1.70
2023-04-15T15:03:21.903Z,1.80
2023-04-15T15:05:49.948Z,1.80
2023-04-15T15:08:17.789Z,2.60
2023-04-15T15:10:49.116Z,2.20
2023-04-15T15:13:17.412Z,2.40
2023-04-15T15:15:45.298Z,3.20
2023-04-15T15:18:13.233Z,2.10
2023-04-15T15:20:41.112Z,2.10
2023-04-15T15:23:08.872Z,2.10
2023-04-15T15:25:36.539Z,2.30
2023-04-15T15:28:04.412Z,2.90
2023-04-15T15:30:32.239Z,3.70
2023-04-15T15:33:00.031Z,8.20
2023-04-15T15:35:28.122Z,6.50
2023-04-15T15:37:55.885Z,2.20
2023-04-15T15:40:23.735Z,3.30
2023-04-15T15:42:51.505Z,3.30
2023-04-15T15:45:19.372Z,2.30
2023-04-15T15:47:47.176Z,1.80
2023-04-15T15:50:15.008Z,1.90
2023-04-15T15:52:42.968Z,1.80
2023-04-15T15:55:10.735Z,4.30
2023-04-15T15:57:38.593Z,10.70
2023-04-15T16:03:04.244Z,4.00
2023-04-15T16:05:24.841Z,5.50
2023-04-15T16:07:52.750Z,4.90
2023-04-15T16:10:20.572Z,5.10
2023-04-15T16:12:48.320Z,3.40
2023-04-15T16:15:16.198Z,5.40
2023-04-15T16:17:43.885Z,2.70
2023-04-15T16:20:11.618Z,4.60
2023-04-15T16:22:39.387Z,7.30
2023-04-15T16:25:07.147Z,5.20
2023-04-15T16:27:36.548Z,36.80
2023-04-15T16:30:14.654Z,17.60
2023-04-15T16:32:42.326Z,38.00
2023-04-15T16:35:10.183Z,11.70
2023-04-15T16:37:37.945Z,14.60
2023-04-15T16:40:05.709Z,7.10
2023-04-15T16:42:33.576Z,5.90
2023-04-15T16:45:01.728Z,8.80
2023-04-15T16:47:33.447Z,12.70
2023-04-15T16:50:04.048Z,9.60
2023-04-15T16:52:33.137Z,49.00
2023-04-15T16:55:00.905Z,17.70
2023-04-15T16:58:03.016Z,10.20
2023-04-15T17:00:32.214Z,5.70
2023-04-15T17:03:00.370Z,4.30
2023-04-15T17:05:28.315Z,3.80
2023-04-15T17:07:56.374Z,5.00
2023-04-15T17:10:24.357Z,6.20
2023-04-15T17:12:52.499Z,3.60
2023-04-15T17:15:20.485Z,6.00
2023-04-15T17:17:48.272Z,9.40
2023-04-15T17:20:19.112Z,11.50
2023-04-15T17:22:46.953Z,5.80
2023-04-15T17:25:15.019Z,14.10
2023-04-15T17:27:42.693Z,51.80
2023-04-15T17:30:10.961Z,14.70
2023-04-15T17:32:39.788Z,17.90
2023-04-15T17:35:08.033Z,14.50
2023-04-15T17:37:36.303Z,50.40
2023-04-15T17:40:05.349Z,15.70
2023-04-15T17:42:35.007Z,30.50
2023-04-15T17:45:02.667Z,28.70
2023-04-15T17:47:30.337Z,8.00
2023-04-15T17:49:58.101Z,10.10
2023-04-15T17:52:26.167Z,11.70
2023-04-15T17:54:53.936Z,9.50
2023-04-15T17:57:21.693Z,12.90
2023-04-15T17:59:49.459Z,8.60
2023-04-15T18:02:17.415Z,10.70
2023-04-15T18:04:45.522Z,8.00
2023-04-15T18:07:13.464Z,6.30
2023-04-15T18:09:41.846Z,7.80
2023-04-15T18:12:09.609Z,18.40
2023-04-15T18:14:37.378Z,14.80
2023-04-15T18:17:05.167Z,26.90
2023-04-15T18:19:33.116Z,42.50
2023-04-15T18:22:01.022Z,35.90
2023-04-15T18:24:28.736Z,43.60
2023-04-15T18:26:56.728Z,29.90
2023-04-15T18:29:25.497Z,33.00
2023-04-15T18:31:53.611Z,39.90
2023-04-15T18:34:21.434Z,32.00
2023-04-15T18:36:49.096Z,36.70
2023-04-15T18:39:17.167Z,39.40
2023-04-15T18:41:44.831Z,38.00
2023-04-15T18:44:12.490Z,39.80
2023-04-15T18:46:40.216Z,40.10
2023-04-15T18:49:08.237Z,33.90
2023-04-15T18:51:36.091Z,16.50
2023-04-15T18:54:03.752Z,12.50
2023-04-15T18:56:31.619Z,10.00
2023-04-15T18:59:10.024Z,12.80
2023-04-15T19:01:46.943Z,13.70
2023-04-15T19:04:14.697Z,10.50
2023-04-15T19:06:42.440Z,11.40
2023-04-15T19:09:10.209Z,15.20
2023-04-15T19:11:38.170Z,27.10
2023-04-15T19:14:06.856Z,25.30
2023-04-15T19:16:34.586Z,24.30
2023-04-15T19:19:02.459Z,33.20
2023-04-15T19:21:30.872Z,24.80
2023-04-15T19:23:58.529Z,26.70
2023-04-15T19:26:26.395Z,20.30
2023-04-15T19:28:54.162Z,16.40
2023-04-15T19:31:21.966Z,20.60
2023-04-15T19:33:49.785Z,19.10
2023-04-15T19:36:18.475Z,11.30
2023-04-15T19:38:46.139Z,14.10
2023-04-15T19:41:13.906Z,12.50
2023-04-15T19:43:41.573Z,9.90
2023-04-15T19:46:09.475Z,15.80
2023-04-15T19:48:37.313Z,15.70
2023-04-15T19:51:05.060Z,16.60
2023-04-15T19:53:32.732Z,12.50
2023-04-15T19:56:00.599Z,11.40
2023-04-15T19:58:28.252Z,13.30
2023-04-15T20:00:56.222Z,13.30
2023-04-15T20:03:24.260Z,14.40
2023-04-15T20:05:53.079Z,18.80
2023-04-15T20:08:20.947Z,39.60
2023-04-15T20:10:48.616Z,24.50
2023-04-15T20:13:16.370Z,18.80
2023-04-15T20:15:44.984Z,12.30
2023-04-15T20:18:12.817Z,12.40
2023-04-15T20:20:40.995Z,12.70
2023-04-15T20:23:08.657Z,12.90
2023-04-15T20:25:36.832Z,14.70
2023-04-15T20:28:04.696Z,11.70
2023-04-15T20:30:32.355Z,13.00
2023-04-15T20:33:00.761Z,9.40
2023-04-15T20:35:31.101Z,12.30
2023-04-15T20:37:59.956Z,16.10
2023-04-15T20:40:27.813Z,11.90
2023-04-15T20:42:56.295Z,10.80
2023-04-15T20:45:24.056Z,11.50
2023-04-15T20:47:51.764Z,9.80
2023-04-15T20:50:19.494Z,8.10
2023-04-15T20:52:47.261Z,12.40
2023-04-15T20:55:14.913Z,7.60
2023-04-15T20:57:45.706Z,9.80
2023-04-15T21:00:18.439Z,16.50
2023-04-15T21:02:46.204Z,9.00
2023-04-15T21:05:14.062Z,7.00
2023-04-15T21:07:41.930Z,8.40
2023-04-15T21:10:09.796Z,7.50
2023-04-15T21:12:41.348Z,4.90
2023-04-15T21:15:09.029Z,7.40
2023-04-15T21:17:36.787Z,5.90
2023-04-15T21:20:04.546Z,6.10
2023-04-15T21:22:32.203Z,4.30
2023-04-15T21:25:00.092Z,7.30
2023-04-15T21:27:27.826Z,5.90
2023-04-15T21:29:55.900Z,6.00
2023-04-15T21:32:23.582Z,4.50
2023-04-15T21:34:51.432Z,6.60
2023-04-15T21:37:19.089Z,7.20
2023-04-15T21:39:46.705Z,7.60
2023-04-15T21:42:14.472Z,8.30
2023-04-15T21:44:42.489Z,8.50
2023-04-15T21:47:10.602Z,8.80
2023-04-15T21:49:38.628Z,8.10
2023-04-15T21:52:06.606Z,7.80
2023-04-15T21:54:37.037Z,7.60
2023-04-15T21:57:04.795Z,7.00
2023-04-15T21:59:32.662Z,5.50
2023-04-15T22:02:00.591Z,6.10
2023-04-15T22:04:28.517Z,5.40
2023-04-15T22:06:59.938Z,8.20
2023-04-15T22:09:27.905Z,7.00
2023-04-15T22:11:55.776Z,5.80
2023-04-15T22:14:23.541Z,6.80
2023-04-15T22:16:51.456Z,6.40
2023-04-15T22:19:19.373Z,4.50
2023-04-15T22:21:47.134Z,5.00
2023-04-15T22:24:38.302Z,4.70
2023-04-15T22:27:03.042Z,7.50
2023-04-15T22:29:30.909Z,11.70
2023-04-15T22:31:58.776Z,10.60
2023-04-15T22:34:26.640Z,9.40
2023-04-15T22:36:54.513Z,10.60
2023-04-15T22:39:22.266Z,11.70
2023-04-15T22:41:49.936Z,13.40
2023-04-15T22:44:17.798Z,12.60
2023-04-15T22:46:45.460Z,10.00
2023-04-15T22:49:13.127Z,5.80
2023-04-15T22:51:41.006Z,5.10
2023-04-15T22:54:08.751Z,8.70
2023-04-15T22:56:40.711Z,5.90
2023-04-15T22:59:08.734Z,6.40
2023-04-15T23:01:38.393Z,6.40
2023-04-15T23:04:10.973Z,7.10
2023-04-15T23:06:52.466Z,6.70
2023-04-15T23:09:20.219Z,4.70
2023-04-15T23:11:47.898Z,6.50
2023-04-15T23:14:16.157Z,5.00
2023-04-15T23:16:43.929Z,4.70
2023-04-15T23:19:11.976Z,3.70
2023-04-15T23:21:39.974Z,5.00
2023-04-15T23:24:07.735Z,4.20
2023-04-15T23:26:35.490Z,4.10
2023-04-15T23:29:03.160Z,4.80
2023-04-15T23:31:31.029Z,5.00
2023-04-15T23:33:59.194Z,4.40
2023-04-15T23:36:27.468Z,3.80
2023-04-15T23:38:55.240Z,3.90
2023-04-15T23:41:22.996Z,5.10
2023-04-15T23:43:50.762Z,4.60
2023-04-15T23:46:18.448Z,4.10
2023-04-15T23:48:47.939Z,3.30
2023-04-15T23:51:16.102Z,3.40
2023-04-15T23:53:43.771Z,3.90
2023-04-15T23:56:11.735Z,4.00
2023-04-15T23:58:39.394Z,6.00
